Time;durP1;ratioP1;P1;durP2;ratioP2;P2;SDS_P1;SDS_P2;PMS_P1;PMS_P2;Temp;Humidity;BMP_temperature;BMP_pressure;BME280_temperature;BME280_humidity;BME280_pressure;Samples;Min_cycle;Max_cycle;Signal;HPM_P1;HPM_P2
2021/05/31 00:01:52;;;;;;;;;;;25.00;46.50;;;;;;5013385;28;76881;-71
2021/05/31 00:04:18;;;;;;;;;;;25.10;46.60;;;;;;5015334;28;75446;-69
2021/05/31 00:07:03;;;;;;;;;;;25.00;46.60;;;;;;5015231;28;75031;-73
2021/05/31 00:09:31;;;;;;;;;;;25.00;46.60;;;;;;5014661;28;74439;-68
2021/05/31 00:11:57;;;;;;;;;;;25.00;46.70;;;;;;5015033;28;75094;-70
2021/05/31 00:14:22;;;;;;;;;;;25.00;46.80;;;;;;5013268;28;77426;-66
2021/05/31 00:16:49;;;;;;;;;;;25.00;46.90;;;;;;5015035;28;75519;-70
2021/05/31 00:19:14;;;;;;;;;;;24.90;47.10;;;;;;5014892;28;75051;-66
2021/05/31 00:21:40;;;;;;;;;;;24.90;47.10;;;;;;5015042;28;75026;-67
2021/05/31 00:24:06;;;;;;;;;;;24.90;47.00;;;;;;5014808;28;75159;-68
2021/05/31 00:26:32;;;;;;;;;;;24.90;47.20;;;;;;5015079;28;75056;-69
2021/05/31 00:28:58;;;;;;;;;;;24.90;47.10;;;;;;5013084;28;74766;-67
2021/05/31 00:31:23;;;;;;;;;;;24.90;47.00;;;;;;5013694;28;76833;-68
2021/05/31 00:33:49;;;;;;;;;;;24.90;47.20;;;;;;5013365;28;74649;-67
2021/05/31 00:36:15;;;;;;;;;;;24.90;47.30;;;;;;5013358;28;75521;-66
2021/05/31 00:38:41;;;;;;;;;;;24.90;47.30;;;;;;5013266;28;75515;-68
2021/05/31 00:41:07;;;;;;;;;;;24.80;47.30;;;;;;5014846;28;75672;-68
2021/05/31 00:43:34;;;;;;;;;;;24.70;47.30;;;;;;5014946;28;75675;-68
2021/05/31 00:46:04;;;;;;;;;;;24.70;47.30;;;;;;5013069;28;75746;-68
2021/05/31 00:48:30;;;;;;;;;;;24.70;47.20;;;;;;5014941;28;74428;-71
2021/05/31 00:50:57;;;;;;;;;;;24.70;47.20;;;;;;5013109;28;74717;-71
2021/05/31 00:53:22;;;;;;;;;;;24.60;47.30;;;;;;5014375;28;75604;-68
2021/05/31 00:55:49;;;;;;;;;;;24.60;47.50;;;;;;5012707;28;75287;-71
2021/05/31 00:58:15;;;;;;;;;;;24.60;47.60;;;;;;5014263;28;75115;-70
2021/05/31 01:00:41;;;;;;;;;;;24.50;47.70;;;;;;5014619;28;75027;-70
2021/05/31 01:03:07;;;;;;;;;;;24.50;47.70;;;;;;5014712;28;74546;-72
2021/05/31 01:05:33;;;;;;;;;;;24.50;47.70;;;;;;5012817;28;78158;-72
2021/05/31 01:08:01;;;;;;;;;;;24.50;47.70;;;;;;5014247;28;75421;-71
2021/05/31 01:10:31;;;;;;;;;;;24.50;48.00;;;;;;5012548;28;77695;-72
2021/05/31 01:13:00;;;;;;;;;;;24.50;48.30;;;;;;5012424;28;75615;-71
2021/05/31 01:15:29;;;;;;;;;;;24.40;48.00;;;;;;5012500;28;76290;-72
2021/05/31 01:18:01;;;;;;;;;;;24.40;48.20;;;;;;5014171;28;75216;-72
2021/05/31 01:20:45;;;;;;;;;;;24.40;48.20;;;;;;5012569;28;77604;-73
2021/05/31 01:23:12;;;;;;;;;;;24.40;48.30;;;;;;5012596;28;75409;-72
2021/05/31 01:25:41;;;;;;;;;;;24.30;48.20;;;;;;5013049;28;77651;-73
2021/05/31 01:28:12;;;;;;;;;;;24.30;48.20;;;;;;5012293;28;76408;-72
2021/05/31 01:30:41;;;;;;;;;;;24.30;48.10;;;;;;5012396;28;77851;-72
2021/05/31 01:33:08;;;;;;;;;;;24.30;48.20;;;;;;5013949;28;75230;-72
2021/05/31 01:35:34;;;;;;;;;;;24.30;49.70;;;;;;5014201;28;75739;-73
2021/05/31 01:38:01;;;;;;;;;;;24.20;50.80;;;;;;5014073;28;75231;-71
2021/05/31 01:40:27;;;;;;;;;;;24.20;50.10;;;;;;5012201;28;77005;-72
2021/05/31 01:42:55;;;;;;;;;;;24.10;49.70;;;;;;5013916;28;74570;-74
2021/05/31 01:45:21;;;;;;;;;;;24.10;49.20;;;;;;5013711;28;74438;-72
2021/05/31 01:47:47;;;;;;;;;;;24.00;49.30;;;;;;5012083;28;76307;-73
2021/05/31 01:50:14;;;;;;;;;;;24.10;49.30;;;;;;5012013;28;78139;-74
2021/05/31 01:52:41;;;;;;;;;;;24.10;50.10;;;;;;5013965;28;74524;-73
2021/05/31 01:55:08;;;;;;;;;;;24.00;49.30;;;;;;5011574;28;74636;-69
2021/05/31 01:57:34;;;;;;;;;;;24.00;49.60;;;;;;5011944;28;77511;-73
2021/05/31 02:00:00;;;;;;;;;;;24.00;49.70;;;;;;5011983;28;76985;-73
2021/05/31 02:02:26;;;;;;;;;;;24.00;49.60;;;;;;5013426;28;75178;-73
2021/05/31 02:04:51;;;;;;;;;;;24.00;49.50;;;;;;5013587;28;75140;-73
2021/05/31 02:07:17;;;;;;;;;;;24.00;49.60;;;;;;5013159;28;75730;-73
2021/05/31 02:09:44;;;;;;;;;;;23.90;49.60;;;;;;5013334;28;75164;-71
2021/05/31 02:12:11;;;;;;;;;;;23.90;49.60;;;;;;5011809;28;75320;-73
2021/05/31 02:14:37;;;;;;;;;;;23.90;49.90;;;;;;5013306;28;75411;-72
2021/05/31 02:17:03;;;;;;;;;;;23.90;49.60;;;;;;5013673;28;74374;-74
2021/05/31 02:19:30;;;;;;;;;;;23.90;49.70;;;;;;5011400;28;76312;-74
2021/05/31 02:21:56;;;;;;;;;;;23.80;49.70;;;;;;5011534;28;78329;-70
2021/05/31 02:24:22;;;;;;;;;;;23.80;49.40;;;;;;5012270;28;75206;-70
2021/05/31 02:26:48;;;;;;;;;;;23.80;49.20;;;;;;5011901;28;75761;-69
2021/05/31 02:29:14;;;;;;;;;;;23.80;49.20;;;;;;5011196;28;75369;-70
2021/05/31 02:31:41;;;;;;;;;;;23.80;49.20;;;;;;5011497;28;75418;-70
2021/05/31 02:34:09;;;;;;;;;;;23.80;49.20;;;;;;5011471;28;75405;-69
2021/05/31 02:36:35;;;;;;;;;;;23.70;49.10;;;;;;5013019;28;74703;-68
2021/05/31 02:39:00;;;;;;;;;;;23.70;49.40;;;;;;5011354;28;75587;-67
2021/05/31 02:41:27;;;;;;;;;;;23.60;49.10;;;;;;5011166;28;76106;-71
2021/05/31 02:43:53;;;;;;;;;;;23.50;49.50;;;;;;5012992;28;74483;-68
2021/05/31 02:46:19;;;;;;;;;;;23.50;49.50;;;;;;5011234;28;76872;-68
2021/05/31 02:48:45;;;;;;;;;;;23.50;49.30;;;;;;5011181;28;75653;-72
2021/05/31 02:51:10;;;;;;;;;;;23.50;49.40;;;;;;5013083;28;75050;-68
2021/05/31 02:53:36;;;;;;;;;;;23.40;49.40;;;;;;5012593;28;75047;-68
2021/05/31 02:56:02;;;;;;;;;;;23.40;49.50;;;;;;5011122;28;74689;-70
2021/05/31 02:58:28;;;;;;;;;;;23.40;49.60;;;;;;5012542;28;74516;-69
2021/05/31 03:00:54;;;;;;;;;;;23.40;49.60;;;;;;5011131;28;75629;-70
2021/05/31 03:03:19;;;;;;;;;;;23.30;49.60;;;;;;5010961;28;75234;-68
2021/05/31 03:05:45;;;;;;;;;;;23.30;49.80;;;;;;5012573;28;75192;-68
2021/05/31 03:08:10;;;;;;;;;;;23.30;49.80;;;;;;5010976;28;75975;-67
2021/05/31 03:10:36;;;;;;;;;;;23.20;49.80;;;;;;5012325;28;75126;-67
2021/05/31 03:13:02;;;;;;;;;;;23.20;49.80;;;;;;5012505;28;75347;-72
2021/05/31 03:15:28;;;;;;;;;;;23.20;49.90;;;;;;5012166;28;75215;-69
2021/05/31 03:17:54;;;;;;;;;;;23.20;50.00;;;;;;5012396;28;75219;-68
2021/05/31 03:20:22;;;;;;;;;;;23.20;50.20;;;;;;5012440;28;75383;-69
2021/05/31 03:22:48;;;;;;;;;;;23.10;50.80;;;;;;5012248;28;75578;-69
2021/05/31 03:25:13;;;;;;;;;;;23.00;50.80;;;;;;5012424;28;75314;-68
2021/05/31 03:27:41;;;;;;;;;;;23.00;51.00;;;;;;5012111;28;75660;-70
2021/05/31 03:30:09;;;;;;;;;;;23.00;50.70;;;;;;5010530;28;75580;-70
2021/05/31 03:32:35;;;;;;;;;;;22.90;50.50;;;;;;5012066;28;75234;-72
2021/05/31 03:35:00;;;;;;;;;;;23.00;51.70;;;;;;5012946;28;74439;-69
2021/05/31 03:37:26;;;;;;;;;;;22.90;51.90;;;;;;5014003;28;76307;-68
2021/05/31 03:39:51;;;;;;;;;;;22.90;51.40;;;;;;5014177;28;76647;-70
2021/05/31 03:42:17;;;;;;;;;;;22.80;51.10;;;;;;5015729;28;75243;-69
2021/05/31 03:44:43;;;;;;;;;;;22.80;51.00;;;;;;5013588;28;77199;-68
2021/05/31 03:47:09;;;;;;;;;;;22.70;51.30;;;;;;5013866;28;77510;-67
2021/05/31 03:49:34;;;;;;;;;;;22.70;51.30;;;;;;5013638;28;75540;-69
2021/05/31 03:52:00;;;;;;;;;;;22.70;51.40;;;;;;5014145;28;76031;-67
2021/05/31 03:54:26;;;;;;;;;;;22.60;51.40;;;;;;5013973;28;77297;-67
2021/05/31 03:56:51;;;;;;;;;;;22.60;52.10;;;;;;5013653;28;75747;-69
2021/05/31 03:59:18;;;;;;;;;;;22.60;51.70;;;;;;5015216;28;75321;-70
2021/05/31 04:01:45;;;;;;;;;;;22.50;51.30;;;;;;5013534;28;77107;-71
2021/05/31 04:04:11;;;;;;;;;;;22.50;51.60;;;;;;5015813;28;74533;-72
2021/05/31 04:06:56;;;;;;;;;;;22.50;51.80;;;;;;5013627;28;77050;-71
2021/05/31 04:12:06;;;;;;;;;;;22.50;51.80;;;;;;5015702;28;75033;-70
2021/05/31 04:14:32;;;;;;;;;;;22.50;52.00;;;;;;5012931;28;78581;-68
2021/05/31 04:16:57;;;;;;;;;;;22.50;51.90;;;;;;5013567;28;77553;-69
2021/05/31 04:19:24;;;;;;;;;;;22.50;51.80;;;;;;5013455;28;76170;-69
2021/05/31 04:21:51;;;;;;;;;;;22.50;51.70;;;;;;5015543;28;74495;-71
2021/05/31 04:24:17;;;;;;;;;;;22.40;51.50;;;;;;5013550;28;76228;-69
2021/05/31 04:26:43;;;;;;;;;;;22.40;51.50;;;;;;5013500;28;75896;-69
2021/05/31 04:29:10;;;;;;;;;;;22.40;51.30;;;;;;5013178;28;75408;-70
2021/05/31 04:31:36;;;;;;;;;;;22.40;51.10;;;;;;5013121;28;77145;-70
2021/05/31 04:34:02;;;;;;;;;;;22.40;51.10;;;;;;5013519;28;74385;-68
2021/05/31 04:36:28;;;;;;;;;;;22.40;51.30;;;;;;5014831;28;74618;-68
2021/05/31 04:38:54;;;;;;;;;;;22.40;51.30;;;;;;5013395;28;77149;-68
2021/05/31 04:41:20;;;;;;;;;;;22.40;51.40;;;;;;5014787;28;75115;-67
2021/05/31 04:43:45;;;;;;;;;;;22.40;51.60;;;;;;5014571;28;75363;-66
2021/05/31 04:46:11;;;;;;;;;;;22.40;51.20;;;;;;5014308;28;75504;-67
2021/05/31 04:48:36;;;;;;;;;;;22.30;51.20;;;;;;5014575;28;75255;-71
2021/05/31 04:51:02;;;;;;;;;;;22.30;51.20;;;;;;5012875;28;76581;-70
2021/05/31 04:53:28;;;;;;;;;;;22.30;51.40;;;;;;5014418;28;75404;-70
2021/05/31 04:55:54;;;;;;;;;;;22.30;51.20;;;;;;5012724;28;77132;-65
2021/05/31 04:58:21;;;;;;;;;;;22.20;51.10;;;;;;5012729;28;77998;-64
2021/05/31 05:00:47;;;;;;;;;;;22.20;51.00;;;;;;5012890;28;76130;-70
2021/05/31 05:03:12;;;;;;;;;;;22.20;51.20;;;;;;5012836;28;75684;-66
2021/05/31 05:05:38;;;;;;;;;;;22.20;51.30;;;;;;5012813;28;77848;-67
2021/05/31 05:08:04;;;;;;;;;;;22.20;51.50;;;;;;5014420;28;75027;-68
2021/05/31 05:10:30;;;;;;;;;;;22.20;51.50;;;;;;5014367;28;74658;-67
2021/05/31 05:12:55;;;;;;;;;;;22.20;51.30;;;;;;5014310;28;75444;-66
2021/05/31 05:15:21;;;;;;;;;;;22.20;50.90;;;;;;5012370;28;75380;-64
2021/05/31 05:17:48;;;;;;;;;;;22.20;51.00;;;;;;5014070;28;74952;-67
2021/05/31 05:20:14;;;;;;;;;;;22.20;50.90;;;;;;5014130;28;74950;-65
2021/05/31 05:22:41;;;;;;;;;;;22.20;50.20;;;;;;5012806;28;78027;-64
2021/05/31 05:25:07;;;;;;;;;;;22.20;51.60;;;;;;5012510;28;75092;-64
2021/05/31 05:27:32;;;;;;;;;;;22.20;51.70;;;;;;5014100;28;74434;-65
2021/05/31 05:29:58;;;;;;;;;;;22.20;50.50;;;;;;5012080;28;75871;-64
2021/05/31 05:32:24;;;;;;;;;;;22.20;50.20;;;;;;5014139;28;74454;-65
2021/05/31 05:34:51;;;;;;;;;;;22.20;49.80;;;;;;4980596;28;75753;-65
2021/05/31 05:37:31;;;;;;;;;;;22.10;49.40;;;;;;4977629;28;77597;-64
2021/05/31 05:47:50;;;;;;;;;;;22.10;48.00;;;;;;4976638;28;74491;-66
2021/05/31 05:50:20;;;;;;;;;;;22.10;47.70;;;;;;4992226;28;75832;-69
2021/05/31 05:52:46;;;;;;;;;;;22.00;47.50;;;;;;4993588;28;74553;-64
2021/05/31 05:55:12;;;;;;;;;;;22.00;47.60;;;;;;4976330;28;76086;-68
2021/05/31 05:57:38;;;;;;;;;;;22.00;47.70;;;;;;4987738;28;78466;-64
2021/05/31 06:00:06;;;;;;;;;;;22.00;47.30;;;;;;4973575;28;75260;-67
2021/05/31 06:02:31;;;;;;;;;;;22.00;47.20;;;;;;4972335;28;74611;-65
2021/05/31 06:04:57;;;;;;;;;;;22.00;47.10;;;;;;4998443;28;74696;-64
2021/05/31 06:07:23;;;;;;;;;;;22.00;47.20;;;;;;4971729;28;78248;-63
2021/05/31 06:09:48;;;;;;;;;;;22.00;47.00;;;;;;4973829;28;75737;-63
2021/05/31 06:12:14;;;;;;;;;;;22.10;47.10;;;;;;4973306;28;75125;-64
2021/05/31 06:14:39;;;;;;;;;;;22.10;47.00;;;;;;4971910;28;75636;-64
2021/05/31 06:17:05;;;;;;;;;;;22.20;46.50;;;;;;4972103;28;75787;-63
2021/05/31 06:19:31;;;;;;;;;;;22.20;46.60;;;;;;4972855;28;74635;-63
2021/05/31 06:21:56;;;;;;;;;;;22.30;46.40;;;;;;4973156;28;75253;-63
2021/05/31 06:24:22;;;;;;;;;;;22.30;46.20;;;;;;4971257;28;77286;-67
2021/05/31 06:26:48;;;;;;;;;;;22.40;46.20;;;;;;4970541;28;78290;-64
2021/05/31 06:29:13;;;;;;;;;;;22.40;46.20;;;;;;4971785;28;76319;-68
2021/05/31 06:31:39;;;;;;;;;;;22.50;45.90;;;;;;4973520;28;75946;-66
2021/05/31 06:34:04;;;;;;;;;;;22.60;45.70;;;;;;4974855;28;75303;-64
2021/05/31 06:36:32;;;;;;;;;;;22.70;45.20;;;;;;4970296;28;78081;-62
2021/05/31 06:38:58;;;;;;;;;;;22.70;45.30;;;;;;4970148;28;78289;-64
2021/05/31 06:41:23;;;;;;;;;;;22.80;44.60;;;;;;4973547;28;75756;-65
2021/05/31 06:43:49;;;;;;;;;;;22.90;44.80;;;;;;4972507;28;75340;-64
2021/05/31 06:46:15;;;;;;;;;;;22.90;44.60;;;;;;4971155;28;78500;-70
2021/05/31 06:48:40;;;;;;;;;;;23.00;44.30;;;;;;4972862;28;74946;-73
2021/05/31 06:51:06;;;;;;;;;;;23.00;44.40;;;;;;4971222;28;76397;-63
2021/05/31 06:53:32;;;;;;;;;;;23.10;44.20;;;;;;4988703;28;77135;-64
2021/05/31 06:55:57;;;;;;;;;;;23.10;44.10;;;;;;4977996;28;77235;-63
2021/05/31 06:58:23;;;;;;;;;;;23.20;43.70;;;;;;4971555;28;75049;-63
2021/05/31 07:00:49;;;;;;;;;;;23.20;43.70;;;;;;4972748;28;75262;-63
2021/05/31 07:03:15;;;;;;;;;;;23.30;43.50;;;;;;4972966;28;74445;-64
2021/05/31 07:05:40;;;;;;;;;;;23.40;43.30;;;;;;4972484;28;75131;-63
2021/05/31 07:08:06;;;;;;;;;;;23.40;43.50;;;;;;4972441;28;74512;-64
2021/05/31 07:10:32;;;;;;;;;;;23.50;43.80;;;;;;4972322;28;75126;-63
2021/05/31 07:12:58;;;;;;;;;;;23.50;43.50;;;;;;4971276;28;75137;-63
2021/05/31 07:15:24;;;;;;;;;;;23.50;43.70;;;;;;4973373;28;75350;-63
2021/05/31 07:17:50;;;;;;;;;;;23.50;43.70;;;;;;4990565;28;75055;-64
2021/05/31 07:20:16;;;;;;;;;;;23.60;43.60;;;;;;4972480;28;74517;-64
2021/05/31 07:22:43;;;;;;;;;;;23.70;43.40;;;;;;4981471;28;75410;-64
2021/05/31 07:25:09;;;;;;;;;;;23.80;43.60;;;;;;4986225;28;75054;-64
2021/05/31 07:27:35;;;;;;;;;;;23.80;44.10;;;;;;4970121;28;78445;-64
2021/05/31 07:30:01;;;;;;;;;;;23.80;43.90;;;;;;4971895;28;74971;-63
2021/05/31 07:32:26;;;;;;;;;;;23.80;44.50;;;;;;4987477;28;75439;-65
2021/05/31 07:34:52;;;;;;;;;;;23.70;43.80;;;;;;4971697;28;75109;-64
2021/05/31 07:37:18;;;;;;;;;;;23.70;44.10;;;;;;4970567;28;78337;-64
2021/05/31 07:39:43;;;;;;;;;;;23.80;43.90;;;;;;4972282;28;75044;-64
2021/05/31 07:42:09;;;;;;;;;;;23.80;44.20;;;;;;4972472;28;75407;-64
2021/05/31 07:44:35;;;;;;;;;;;23.90;43.80;;;;;;4970601;28;75294;-63
2021/05/31 07:47:00;;;;;;;;;;;24.00;43.90;;;;;;4972000;28;75101;-65
2021/05/31 07:49:26;;;;;;;;;;;24.10;43.90;;;;;;4972216;28;74474;-64
2021/05/31 07:51:54;;;;;;;;;;;24.10;43.60;;;;;;4979761;28;75246;-63
2021/05/31 07:54:21;;;;;;;;;;;24.20;43.60;;;;;;5011423;28;75718;-64
2021/05/31 07:56:46;;;;;;;;;;;24.30;43.10;;;;;;4973703;28;75154;-64
2021/05/31 07:59:12;;;;;;;;;;;24.40;42.70;;;;;;4970075;28;75647;-64
2021/05/31 08:01:38;;;;;;;;;;;24.40;42.50;;;;;;4972056;28;75160;-64
2021/05/31 08:04:06;;;;;;;;;;;24.50;42.30;;;;;;4969982;28;74589;-64
2021/05/31 08:06:32;;;;;;;;;;;24.50;42.00;;;;;;4971715;28;75277;-65
2021/05/31 08:08:58;;;;;;;;;;;24.60;41.70;;;;;;4971399;28;74590;-64
2021/05/31 08:11:23;;;;;;;;;;;24.70;42.00;;;;;;4972005;28;75179;-64
2021/05/31 08:13:49;;;;;;;;;;;24.90;42.50;;;;;;4971597;28;76398;-68
2021/05/31 08:16:18;;;;;;;;;;;24.90;41.70;;;;;;4970050;28;75342;-65
2021/05/31 08:18:43;;;;;;;;;;;25.00;41.10;;;;;;4968753;28;75314;-64
2021/05/31 08:21:09;;;;;;;;;;;25.20;40.80;;;;;;4970722;28;75430;-64
2021/05/31 08:23:35;;;;;;;;;;;25.20;41.00;;;;;;5011213;28;75221;-64
2021/05/31 08:26:00;;;;;;;;;;;25.20;40.60;;;;;;4994144;28;74554;-64
2021/05/31 08:28:26;;;;;;;;;;;25.40;40.50;;;;;;4973349;28;75112;-64
2021/05/31 08:30:52;;;;;;;;;;;25.50;40.30;;;;;;4974639;28;74521;-64
2021/05/31 08:33:17;;;;;;;;;;;25.70;39.70;;;;;;4974529;28;74595;-63
2021/05/31 08:35:43;;;;;;;;;;;25.80;39.00;;;;;;4992980;28;77337;-62
2021/05/31 08:38:09;;;;;;;;;;;25.70;38.20;;;;;;4974555;28;75298;-66
2021/05/31 08:40:35;;;;;;;;;;;25.50;38.60;;;;;;4973262;28;74937;-65
2021/05/31 08:43:01;;;;;;;;;;;25.60;39.20;;;;;;4973035;28;76482;-65
2021/05/31 08:45:29;;;;;;;;;;;25.80;39.00;;;;;;4973962;28;74745;-66
2021/05/31 08:47:55;;;;;;;;;;;25.90;38.40;;;;;;4974428;28;75543;-65
2021/05/31 08:50:23;;;;;;;;;;;25.90;38.50;;;;;;4972857;28;78202;-66
2021/05/31 08:52:49;;;;;;;;;;;26.00;38.70;;;;;;4998077;28;75412;-65
2021/05/31 08:55:16;;;;;;;;;;;26.10;38.30;;;;;;5012809;28;75681;-66
2021/05/31 08:57:44;;;;;;;;;;;26.10;37.60;;;;;;4992364;28;94221;-66
2021/05/31 09:00:11;;;;;;;;;;;26.00;38.00;;;;;;4992217;28;77417;-66
2021/05/31 09:02:37;;;;;;;;;;;26.10;37.90;;;;;;4994272;28;75287;-65
2021/05/31 09:05:03;;;;;;;;;;;26.20;38.10;;;;;;4994601;28;74616;-65
2021/05/31 09:07:29;;;;;;;;;;;26.40;37.70;;;;;;4974318;28;75627;-66
2021/05/31 09:09:55;;;;;;;;;;;26.50;37.40;;;;;;4973143;28;78215;-66
2021/05/31 09:12:25;;;;;;;;;;;26.60;37.50;;;;;;4973993;28;74817;-66
2021/05/31 09:14:58;;;;;;;;;;;26.70;37.10;;;;;;4974387;28;75206;-67
2021/05/31 09:17:28;;;;;;;;;;;26.90;37.30;;;;;;4972384;28;77383;-65
2021/05/31 09:19:54;;;;;;;;;;;27.00;37.10;;;;;;4974153;28;75125;-67
2021/05/31 09:22:20;;;;;;;;;;;27.00;36.90;;;;;;4984148;28;74600;-66
2021/05/31 09:24:59;;;;;;;;;;;27.00;36.90;;;;;;4974292;28;74553;-66
2021/05/31 09:27:25;;;;;;;;;;;27.00;36.60;;;;;;4973008;28;75591;-67
2021/05/31 09:29:55;;;;;;;;;;;27.00;36.60;;;;;;4973517;28;75561;-66
2021/05/31 09:32:21;;;;;;;;;;;27.00;36.90;;;;;;4973874;28;75360;-69
2021/05/31 09:34:56;;;;;;;;;;;27.00;36.90;;;;;;4973792;28;76585;-67
2021/05/31 09:37:22;;;;;;;;;;;27.10;37.00;;;;;;4973828;28;75168;-66
2021/05/31 09:39:56;;;;;;;;;;;27.20;36.70;;;;;;4973775;28;74681;-65
2021/05/31 09:42:21;;;;;;;;;;;27.40;36.70;;;;;;4973394;28;75329;-64
2021/05/31 09:44:59;;;;;;;;;;;27.40;36.70;;;;;;4971637;28;75951;-65
2021/05/31 09:47:29;;;;;;;;;;;27.50;35.60;;;;;;4970833;28;77192;-64
2021/05/31 09:49:55;;;;;;;;;;;27.50;36.10;;;;;;4973468;28;74750;-64
2021/05/31 09:52:21;;;;;;;;;;;27.50;36.00;;;;;;4987954;28;78071;-65
2021/05/31 09:54:48;;;;;;;;;;;27.60;35.90;;;;;;5011675;28;76400;-65
2021/05/31 09:57:16;;;;;;;;;;;27.80;37.10;;;;;;4989642;28;75672;-63
2021/05/31 09:59:54;;;;;;;;;;;27.90;35.80;;;;;;4971355;28;74917;-64
2021/05/31 10:02:30;;;;;;;;;;;28.00;36.00;;;;;;4973890;28;74891;-64
2021/05/31 10:07:43;;;;;;;;;;;28.10;35.10;;;;;;4970007;28;75083;-64
2021/05/31 10:10:09;;;;;;;;;;;28.20;35.50;;;;;;4971308;28;77385;-64
2021/05/31 10:12:37;;;;;;;;;;;28.40;35.60;;;;;;4972315;28;77465;-64
2021/05/31 10:15:03;;;;;;;;;;;28.50;35.00;;;;;;4971925;28;76364;-63
2021/05/31 10:17:28;;;;;;;;;;;28.50;35.00;;;;;;4972960;28;77115;-63
2021/05/31 10:19:54;;;;;;;;;;;28.60;33.20;;;;;;4973387;28;74531;-63
2021/05/31 10:22:20;;;;;;;;;;;28.50;33.60;;;;;;4988901;28;75737;-64
2021/05/31 10:24:48;;;;;;;;;;;28.60;35.00;;;;;;5008965;28;77935;-63
2021/05/31 10:27:14;;;;;;;;;;;28.90;34.40;;;;;;4971220;28;76174;-63
2021/05/31 10:29:41;;;;;;;;;;;29.00;34.00;;;;;;4971553;28;75100;-63
2021/05/31 10:32:08;;;;;;;;;;;29.20;33.20;;;;;;4972068;28;75407;-63
2021/05/31 10:34:44;;;;;;;;;;;29.40;33.30;;;;;;4971767;28;75183;-64
2021/05/31 10:37:24;;;;;;;;;;;29.50;33.00;;;;;;4994385;28;75894;-63
2021/05/31 10:40:00;;;;;;;;;;;29.60;32.90;;;;;;4976008;28;75673;-63
2021/05/31 10:42:36;;;;;;;;;;;29.60;33.20;;;;;;4973196;28;74621;-64
2021/05/31 10:45:13;;;;;;;;;;;29.70;33.00;;;;;;4972901;28;77521;-64
2021/05/31 10:47:39;;;;;;;;;;;29.70;33.30;;;;;;4981634;28;74617;-64
2021/05/31 10:50:13;;;;;;;;;;;29.90;32.20;;;;;;4972724;28;74589;-64
2021/05/31 10:52:49;;;;;;;;;;;29.90;32.80;;;;;;4982366;28;75163;-64
2021/05/31 10:55:15;;;;;;;;;;;29.90;33.00;;;;;;4972113;28;75150;-64
2021/05/31 10:57:40;;;;;;;;;;;30.00;32.70;;;;;;4972193;28;76058;-64
2021/05/31 11:00:06;;;;;;;;;;;30.00;33.10;;;;;;4970871;28;75298;-64
2021/05/31 11:02:32;;;;;;;;;;;30.00;32.50;;;;;;4972630;28;74615;-64
2021/05/31 11:05:09;;;;;;;;;;;30.20;32.00;;;;;;4972630;28;75065;-64
2021/05/31 11:07:35;;;;;;;;;;;30.40;31.00;;;;;;4972197;28;74740;-64
2021/05/31 11:10:00;;;;;;;;;;;30.60;32.20;;;;;;4987431;28;77019;-64
2021/05/31 11:12:30;;;;;;;;;;;31.10;31.70;;;;;;4971268;28;75850;-64
2021/05/31 11:15:16;;;;;;;;;;;31.50;30.30;;;;;;4970772;28;75584;-64
2021/05/31 11:17:52;;;;;;;;;;;31.90;30.90;;;;;;4980835;28;75514;-64
2021/05/31 11:20:18;;;;;;;;;;;32.20;30.00;;;;;;4970766;28;78103;-64
2021/05/31 11:22:53;;;;;;;;;;;32.70;30.00;;;;;;4994414;28;74563;-64
2021/05/31 11:25:20;;;;;;;;;;;33.20;28.80;;;;;;5010460;28;75531;-64
2021/05/31 11:27:50;;;;;;;;;;;33.70;27.00;;;;;;4996130;28;75411;-64
2021/05/31 11:30:17;;;;;;;;;;;34.00;27.20;;;;;;4972029;28;75659;-64
2021/05/31 11:32:43;;;;;;;;;;;34.40;27.10;;;;;;4970774;28;78694;-64
2021/05/31 11:35:11;;;;;;;;;;;35.10;27.10;;;;;;4972272;28;74891;-64
2021/05/31 11:37:37;;;;;;;;;;;36.20;26.20;;;;;;4971865;28;75289;-65
2021/05/31 11:40:04;;;;;;;;;;;37.50;25.20;;;;;;4970759;28;77890;-64
2021/05/31 11:42:29;;;;;;;;;;;38.70;23.00;;;;;;4971772;28;76653;-64
2021/05/31 11:44:58;;;;;;;;;;;39.30;22.70;;;;;;5003506;28;76324;-65
2021/05/31 11:47:25;;;;;;;;;;;40.10;22.10;;;;;;4971596;28;75238;-65
2021/05/31 11:49:51;;;;;;;;;;;41.10;22.00;;;;;;4972211;28;75271;-65
2021/05/31 11:52:18;;;;;;;;;;;42.00;20.00;;;;;;4978925;28;75196;-64
2021/05/31 11:54:44;;;;;;;;;;;42.50;19.80;;;;;;4991666;28;75191;-64
2021/05/31 11:57:14;;;;;;;;;;;43.20;19.20;;;;;;4993901;28;75845;-64
2021/05/31 11:59:44;;;;;;;;;;;43.80;19.60;;;;;;4974879;28;76632;-65
2021/05/31 12:02:11;;;;;;;;;;;44.90;19.20;;;;;;4975089;28;75620;-64
2021/05/31 12:04:37;;;;;;;;;;;45.70;18.60;;;;;;4975083;28;76447;-64
2021/05/31 12:07:04;;;;;;;;;;;46.20;18.00;;;;;;4975419;28;75772;-64
2021/05/31 12:09:30;;;;;;;;;;;46.20;18.20;;;;;;4974844;28;74627;-64
2021/05/31 12:11:56;;;;;;;;;;;46.40;17.80;;;;;;4973689;28;75499;-64
2021/05/31 12:14:24;;;;;;;;;;;46.70;17.70;;;;;;4975372;28;75147;-64
2021/05/31 12:16:53;;;;;;;;;;;47.60;17.80;;;;;;4972337;28;75498;-64
2021/05/31 12:19:18;;;;;;;;;;;48.30;17.40;;;;;;4980674;28;77351;-67
2021/05/31 12:21:44;;;;;;;;;;;48.80;16.90;;;;;;4994484;28;74676;-66
2021/05/31 12:24:10;;;;;;;;;;;49.30;16.90;;;;;;4993319;28;75220;-65
2021/05/31 12:26:38;;;;;;;;;;;49.40;15.20;;;;;;4993127;28;76558;-65
2021/05/31 12:29:08;;;;;;;;;;;49.30;16.40;;;;;;4983261;28;74714;-65
2021/05/31 12:31:34;;;;;;;;;;;49.30;15.40;;;;;;4974583;28;75342;-66
2021/05/31 12:34:00;;;;;;;;;;;49.40;15.20;;;;;;4989565;28;78157;-65
2021/05/31 12:36:29;;;;;;;;;;;49.10;16.40;;;;;;4974997;28;75725;-65
2021/05/31 12:38:56;;;;;;;;;;;49.30;16.50;;;;;;4972711;28;75877;-66
2021/05/31 12:41:21;;;;;;;;;;;49.50;15.70;;;;;;4975090;28;75386;-64
2021/05/31 12:43:47;;;;;;;;;;;49.70;15.80;;;;;;4973765;28;75159;-65
2021/05/31 12:46:16;;;;;;;;;;;50.10;15.10;;;;;;5002469;28;77544;-65
2021/05/31 12:48:42;;;;;;;;;;;50.70;16.00;;;;;;4972106;28;77961;-66
2021/05/31 12:51:13;;;;;;;;;;;50.80;15.60;;;;;;4973379;28;77127;-66
2021/05/31 12:53:40;;;;;;;;;;;49.60;15.20;;;;;;4991309;28;77960;-65
2021/05/31 12:56:05;;;;;;;;;;;49.10;15.90;;;;;;4992454;28;76490;-64
2021/05/31 12:58:32;;;;;;;;;;;48.60;15.80;;;;;;4988586;28;77633;-64
2021/05/31 13:00:58;;;;;;;;;;;48.70;16.40;;;;;;4972844;28;77047;-65
2021/05/31 13:03:30;;;;;;;;;;;49.90;16.10;;;;;;4974235;28;75376;-64
2021/05/31 13:05:56;;;;;;;;;;;50.40;14.40;;;;;;4974902;28;74520;-64
2021/05/31 13:08:22;;;;;;;;;;;50.80;14.80;;;;;;4973146;28;74667;-64
2021/05/31 13:10:48;;;;;;;;;;;50.80;15.20;;;;;;4972001;28;76054;-65
2021/05/31 13:13:19;;;;;;;;;;;50.90;15.20;;;;;;4972710;28;74907;-65
2021/05/31 13:15:45;;;;;;;;;;;51.10;15.00;;;;;;4974200;28;74578;-65
2021/05/31 13:18:14;;;;;;;;;;;51.70;13.90;;;;;;4974664;28;75521;-66
2021/05/31 13:20:40;;;;;;;;;;;51.50;14.90;;;;;;4972471;28;75259;-66
2021/05/31 13:23:10;;;;;;;;;;;51.20;14.40;;;;;;5000896;28;77296;-67
2021/05/31 13:25:36;;;;;;;;;;;51.50;14.20;;;;;;5013471;28;75265;-69
2021/05/31 13:28:12;;;;;;;;;;;52.20;14.50;;;;;;5012285;28;75366;-66
2021/05/31 13:30:39;;;;;;;;;;;53.70;13.80;;;;;;4974505;28;76494;-66
2021/05/31 13:33:05;;;;;;;;;;;54.90;13.60;;;;;;4973909;28;75156;-65
2021/05/31 13:35:32;;;;;;;;;;;54.40;13.40;;;;;;4974192;28;74571;-65
2021/05/31 13:37:58;;;;;;;;;;;54.00;13.60;;;;;;4974126;28;75141;-67
2021/05/31 13:40:28;;;;;;;;;;;53.20;13.80;;;;;;4972737;28;77180;-65
2021/05/31 13:42:55;;;;;;;;;;;53.40;14.20;;;;;;4989008;28;75483;-66
2021/05/31 13:45:21;;;;;;;;;;;54.10;13.20;;;;;;4972549;28;77459;-65
2021/05/31 13:47:48;;;;;;;;;;;54.40;13.30;;;;;;4973816;28;74582;-66
2021/05/31 13:50:21;;;;;;;;;;;53.60;13.00;;;;;;4973832;28;74634;-66
2021/05/31 13:52:46;;;;;;;;;;;53.20;13.40;;;;;;4996508;28;75292;-65
2021/05/31 13:55:12;;;;;;;;;;;53.00;13.30;;;;;;5013053;28;74571;-65
2021/05/31 13:57:41;;;;;;;;;;;52.60;14.00;;;;;;5011948;28;77096;-65
2021/05/31 14:00:07;;;;;;;;;;;52.70;13.30;;;;;;4989036;28;75419;-66
2021/05/31 14:02:33;;;;;;;;;;;53.30;13.10;;;;;;4973697;28;75220;-64
2021/05/31 14:04:58;;;;;;;;;;;54.30;13.50;;;;;;4973699;28;75201;-65
2021/05/31 14:07:24;;;;;;;;;;;55.30;13.20;;;;;;4973852;28;75145;-65
2021/05/31 14:09:50;;;;;;;;;;;55.70;12.60;;;;;;4972248;28;75256;-65
2021/05/31 14:12:15;;;;;;;;;;;55.20;12.80;;;;;;4973774;28;74599;-67
2021/05/31 14:14:41;;;;;;;;;;;53.90;12.70;;;;;;4971761;28;76509;-65
2021/05/31 14:17:07;;;;;;;;;;;53.30;13.50;;;;;;4972539;28;75000;-65
2021/05/31 14:19:32;;;;;;;;;;;53.40;13.10;;;;;;4972045;28;75279;-65
2021/05/31 14:21:58;;;;;;;;;;;53.20;13.00;;;;;;4982309;28;75305;-65
2021/05/31 14:24:24;;;;;;;;;;;52.70;13.00;;;;;;5010597;28;74735;-65
2021/05/31 14:26:50;;;;;;;;;;;52.90;13.60;;;;;;5011438;28;74978;-65
2021/05/31 14:29:15;;;;;;;;;;;53.20;13.30;;;;;;5008524;28;75527;-64